Adamsville, Pennsylvania
Current Conditions -  °F | °C
As of 9:53 AM on Tuesday 21 Oct 2014 (Local Time) from KGKJ Reporting Station
Overcast Overcast  
Wind Chill: 47°   Ceiling: 700
Heat Index: 49°   Visibility: 10mi
Dew Point: 47°   Wind: 5mph
Humidity: 93%   Direction: 310°NW
Pressure: 29.87"   Gusts: NA
Location:  41.51°N, 80.37°W
Report Text: KGKJ 211353Z AUTO 31004KT 10SM BKN007 BKN013 OVC024 09/08 A2987 RMK AO2 RAE48 CIG 006V012 SLP117 P0000 T00940083 TSNO
Loading
Personal Weather Stations






























Interactive Weather Map New forecast layout! Learn more

10-Day Weather Forecast

Advertisements
Track Severe Weather on mobile